Date,TemperatureHighF,TemperatureAvgF,TemperatureLowF,DewpointHighF,DewpointAvgF,DewpointLowF,HumidityHigh,HumidityAvg,HumidityLow,PressureMaxIn,PressureMinIn,WindSpeedMaxMPH,WindSpeedAvgMPH,GustSpeedMaxMPH,PrecipitationSumIn
2013-1-5,31.3,28.4,29.5,30.5,21.2,-99.9,97,89,85,29.93,29.84,7,-54,0,0.01
2013-1-6,35.8,32.9,30.9,33.2,30.1,26.3,97,89,77,30.12,29.76,9,5,0,0.05
2013-1-7,34.7,31.1,28.9,28.0,24.8,22.5,91,78,68,30.24,30.00,16,7,0,0.00
2013-1-8,36.5,29.1,21.9,27.5,24.4,20.3,94,83,69,30.10,30.02,8,4,0,0.00
2013-1-9,46.6,37.2,26.1,33.9,28.1,23.5,97,72,42,30.27,29.87,11,5,0,0.00
2013-1-10,40.6,31.7,22.5,33.4,27.4,22.3,99,85,62,30.43,30.04,5,2,0,0.05
2013-1-11,53.8,42.6,34.2,51.6,41.7,33.4,99,97,91,30.03,29.58,8,4,0,0.74
2013-1-12,58.3,48.4,41.9,50.5,46.4,41.6,99,93,73,29.77,29.66,10,4,0,0.00
2013-1-13,48.6,38.9,31.5,48.1,37.5,30.2,99,95,87,29.86,29.54,9,3,0,0.80
2013-1-14,30.9,24.3,16.2,28.6,18.2,14.5,95,78,61,30.28,29.87,13,3,0,0.00
2013-1-15,31.1,21.6,12.0,20.4,15.9,9.9,97,80,49,30.28,29.97,6,1,0,0.00
2013-1-16,39.4,28.7,17.2,27.2,19.1,14.9,99,71,38,29.98,29.60,14,4,0,0.00
2013-1-17,34.2,28.5,15.6,27.6,19.0,3.4,87,68,52,30.13,29.77,10,4,0,0.00
2013-1-18,35.4,23.0,9.7,22.6,13.9,5.0,93,69,51,30.27,29.78,21,7,0,0.00
2013-1-19,45.9,39.1,33.1,34.1,28.3,22.7,73,65,57,29.77,29.36,13,8,0,0.00
2013-1-20,43.7,22.8,14.9,34.1,9.3,3.0,70,56,41,30.00,29.34,20,7,0,0.00
2013-1-21,18.3,12.7,4.3,12.8,3.5,-5.5,87,66,51,29.96,29.76,11,4,0,0.00
2013-1-22,10.0,6.5,3.6,0.9,-2.6,-9.1,80,67,48,30.15,30.06,9,4,0,0.00
2013-1-23,16.7,9.5,-1.7,11.2,3.9,-4.4,88,78,61,30.11,29.90,10,3,0,0.00
2013-1-24,20.3,12.6,7.9,10.4,4.4,-1.1,89,71,44,30.41,29.93,11,3,0,0.00
2013-1-25,21.4,15.9,9.9,16.2,11.2,1.5,94,81,68,30.34,29.83,8,2,0,0.00
2013-1-26,28.8,20.2,11.1,17.9,14.6,9.7,95,80,54,30.26,29.87,9,1,0,0.00
2013-1-27,28.2,19.4,6.8,27.0,14.8,5.0,98,83,59,30.31,29.98,11,3,0,0.00
2013-1-28,42.4,35.2,28.6,42.1,34.5,27.9,99,97,92,30.00,29.64,8,3,0,0.65
2013-1-29,54.3,42.6,32.4,51.8,40.6,29.8,93,92,89,29.85,29.30,10,3,0,1.10
2013-1-30,58.6,49.9,33.3,53.8,46.4,27.8,93,88,80,29.29,28.90,13,6,0,0.47
2013-1-31,33.1,22.6,16.2,27.6,12.8,7.0,81,66,50,29.66,29.00,16,7,0,0.00
2013-2-1,21.4,15.6,10.0,8.9,5.3,0.0,75,64,46,30.06,29.67,15,6,0,0.00
2013-2-2,24.4,15.5,7.7,16.4,8.9,2.2,81,75,65,30.02,29.75,10,5,0,0.00
2013-2-3,22.5,13.6,5.4,15.9,5.4,0.2,81,70,56,29.82,29.64,8,3,0,0.00
2013-2-4,25.2,16.8,7.9,15.5,10.2,1.9,87,75,63,29.84,29.70,3,1,0,0.00
2013-2-5,26.6,20.5,12.6,23.0,14.5,9.0,88,78,53,29.76,29.62,10,3,0,0.02
2013-2-6,32.4,22.0,10.8,22.0,13.0,7.2,86,69,45,30.13,29.75,7,2,0,0.02
2013-2-7,36.5,29.3,23.5,24.2,20.0,14.9,78,68,59,30.12,29.73,6,3,0,0.01
2013-2-8,28.9,26.2,22.5,25.2,20.5,15.5,89,79,70,30.15,29.59,19,8,0,0.00
2013-2-9,31.3,21.2,9.5,17.6,13.2,5.9,88,72,49,30.27,30.12,7,3,0,0.07
2013-2-10,37.0,25.8,10.8,32.3,19.8,6.9,90,79,59,30.13,29.52,7,2,0,0.26
2013-2-11,42.3,36.7,32.0,39.0,28.8,23.1,90,73,60,29.65,29.35,17,7,0,0.05
2013-2-12,33.3,30.8,27.9,24.0,20.9,18.4,72,66,60,29.84,29.65,11,4,0,0.00
2013-2-13,42.8,30.1,26.2,22.9,20.1,18.0,82,67,40,29.74,29.53,7,2,0,0.00
2013-2-14,38.1,32.5,24.1,32.6,27.2,20.7,89,81,70,29.61,29.47,14,5,0,0.01
2013-2-15,34.3,27.5,22.6,26.6,14.6,8.4,74,58,40,29.93,29.62,10,4,0,0.00
2013-2-16,27.7,19.8,12.9,17.4,11.7,8.7,84,71,44,29.91,29.77,7,2,0,0.00
2013-2-17,24.6,15.2,7.2,10.5,4.0,1.0,83,62,41,30.03,29.83,10,3,0,0.00
2013-2-18,43.9,27.8,10.2,30.1,16.9,3.6,81,64,51,30.04,29.43,12,5,0,0.00
2013-2-19,43.9,29.7,18.1,37.3,21.5,7.5,88,72,58,29.71,29.22,17,8,0,0.12
2013-2-20,22.6,19.7,15.6,12.0,8.3,5.3,78,61,51,30.04,29.71,11,5,0,0.00
2013-2-21,24.1,19.2,16.7,15.6,10.5,7.9,78,68,55,30.22,30.03,10,4,0,0.00
2013-2-22,33.1,26.6,20.5,30.6,22.8,14.5,92,85,76,30.10,29.70,9,4,0,0.00
2013-2-23,34.7,30.8,25.9,29.4,21.3,17.6,86,68,53,29.72,29.67,10,4,0,0.00
2013-2-24,36.5,28.2,20.5,25.1,20.0,16.4,84,72,56,29.97,29.70,7,3,0,0.04
2013-2-25,40.5,28.2,14.0,23.3,18.2,10.6,88,68,42,30.07,29.93,5,1,0,0.01
2013-2-26,37.0,31.1,23.7,29.9,24.8,18.2,91,78,59,29.96,29.35,11,5,0,0.10
2013-2-27,35.8,33.5,32.2,33.1,30.6,29.7,93,89,85,29.39,29.28,7,4,0,0.77
2013-2-28,36.1,32.6,29.1,31.3,27.9,22.5,92,83,72,29.76,29.35,14,6,0,0.17
2013-3-1,28.8,26.2,24.6,23.2,19.1,17.6,80,74,68,29.92,29.77,19,7,0,0.00
2013-3-2,28.6,24.6,22.5,19.4,17.1,14.4,77,73,65,29.88,29.85,10,4,0,0.00
2013-3-3,29.1,21.9,15.3,16.0,13.2,11.1,85,69,50,29.86,29.81,11,3,0,0.01
2013-3-4,41.9,23.7,10.6,14.6,11.7,6.7,86,63,31,29.96,29.86,5,2,0,0.02
2013-3-5,37.0,26.9,15.4,22.3,18.6,11.4,85,71,52,29.96,29.67,9,4,0,0.00
2013-3-6,42.6,33.6,26.6,28.0,24.7,20.1,82,70,53,30.03,29.68,11,5,0,0.00
2013-3-7,36.7,32.1,25.2,28.4,24.3,18.0,85,73,62,30.22,30.02,10,2,0,0.00
2013-3-8,46.9,32.4,21.2,26.5,21.6,15.9,87,66,41,30.32,30.22,7,2,0,0.00
2013-3-9,45.3,33.5,23.4,30.3,26.2,20.6,91,75,54,30.25,29.87,9,2,0,0.00
2013-3-10,62.2,48.0,32.4,42.4,34.7,28.4,85,62,41,29.87,29.63,14,3,0,0.00
2013-3-11,55.2,48.0,37.8,45.1,40.5,30.6,89,75,56,29.65,29.28,16,7,0,0.35
2013-3-12,38.7,35.0,29.1,30.7,27.2,21.6,80,73,61,29.72,29.48,15,5,0,0.00
2013-3-13,35.1,29.0,25.7,26.1,17.9,11.6,87,64,43,29.98,29.65,12,6,0,0.00
2013-3-14,42.6,29.6,19.8,19.1,14.9,11.3,75,55,34,30.06,29.88,10,3,0,0.00
2013-3-15,40.1,34.4,28.6,32.2,26.1,15.8,89,72,51,29.87,29.66,8,3,0,0.03
2013-3-16,32.2,28.2,22.8,26.2,23.1,18.2,89,81,69,29.85,29.60,9,4,0,0.00
2013-3-17,30.7,25.6,18.5,21.4,15.1,11.6,79,65,51,30.09,29.84,11,5,0,0.00
2013-3-18,34.2,27.7,18.3,31.7,22.7,12.0,92,81,70,30.03,29.35,10,4,0,0.11
2013-3-19,34.2,27.2,23.5,30.2,20.1,15.7,85,74,64,29.73,29.41,14,7,0,0.03
2013-3-20,32.2,24.3,16.7,17.2,13.8,9.3,75,64,50,29.74,29.69,11,4,0,0.00
2013-3-21,32.9,24.0,14.9,23.1,16.4,8.6,81,72,61,29.73,29.64,12,5,0,0.00
2013-3-22,41.2,29.9,24.8,24.0,18.9,15.8,77,63,50,29.83,29.71,9,4,0,0.00
2013-3-23,41.0,31.9,24.4,25.6,21.8,19.9,84,67,52,29.91,29.82,8,2,0,0.00
2013-3-24,37.9,29.2,20.5,27.5,22.4,17.5,91,76,54,29.88,29.46,11,4,0,0.00
2013-3-25,39.4,34.1,30.6,27.3,25.0,22.7,76,69,61,29.70,29.40,14,8,0,0.00
2013-3-26,46.6,37.5,32.9,30.5,27.3,25.1,76,67,48,29.90,29.70,10,4,0,0.00
2013-3-27,49.3,38.7,29.5,28.9,25.5,21.9,75,60,41,30.00,29.90,9,5,0,0.00
2013-3-28,52.3,41.4,33.1,29.6,26.0,22.7,68,55,37,30.08,29.99,8,3,0,0.00
2013-3-29,54.9,42.1,31.1,24.9,22.5,20.7,65,48,28,30.10,30.00,7,2,0,0.00
2013-3-30,56.8,42.2,25.0,29.9,23.6,19.1,82,52,23,30.03,29.75,11,4,0,0.00
2013-3-31,60.1,45.1,32.5,41.8,33.2,24.2,84,64,39,29.75,29.41,11,3,0,0.03
2013-4-1,40.8,32.6,26.2,35.4,17.4,11.7,83,55,36,29.90,29.47,17,6,0,0.00
2013-4-2,43.9,30.6,21.2,18.8,13.8,10.5,77,51,33,30.06,29.90,11,4,0,0.00
2013-4-3,43.0,31.3,21.7,16.8,13.7,10.4,69,50,29,30.24,30.05,14,4,0,0.00
2013-4-4,56.3,39.8,24.1,21.2,18.0,15.7,76,46,22,30.18,29.75,12,4,0,0.00
2013-4-5,46.9,39.3,25.5,29.7,22.8,18.1,80,54,33,30.04,29.75,11,4,0,0.00
2013-4-6,47.7,35.6,23.4,29.0,22.5,17.7,79,60,41,30.09,29.62,10,3,0,0.00
2013-4-7,58.1,49.0,34.3,44.7,35.6,28.2,81,60,39,29.85,29.41,13,5,0,0.00
2013-4-8,61.0,42.3,28.8,51.6,37.8,27.2,96,85,66,29.88,29.52,8,3,0,0.13
2013-4-9,47.8,43.4,39.9,45.6,41.2,37.8,99,92,83,29.93,29.70,13,4,0,1.36
2013-4-10,42.8,39.9,37.4,42.0,39.3,36.4,99,98,95,29.82,29.67,12,6,0,0.46
2013-4-11,38.3,36.1,34.5,37.0,35.3,33.7,99,97,93,29.81,29.48,9,6,0,1.23
2013-4-12,45.0,38.0,34.5,41.7,35.5,34.0,99,91,77,29.57,29.33,10,4,0,0.42
2013-4-13,43.5,39.3,36.7,37.8,31.8,27.9,90,75,61,29.80,29.57,11,6,0,0.00
2013-4-14,46.8,39.2,28.0,36.8,31.1,26.1,93,73,53,29.93,29.77,8,2,0,0.00
2013-4-15,67.5,53.0,34.0,54.3,44.6,31.9,94,75,58,29.80,29.69,17,6,0,0.02
2013-4-16,63.1,55.1,43.7,54.3,43.9,34.6,93,69,38,30.07,29.69,7,4,0,0.01
2013-4-17,58.8,46.4,37.8,44.7,36.5,31.2,97,70,45,30.19,29.88,9,4,0,0.63
2013-4-18,76.8,57.9,43.3,65.1,54.8,42.1,99,90,63,29.86,29.38,28,6,0,0.85
2013-4-19,58.3,46.1,37.6,58.0,41.3,29.8,99,84,64,29.53,29.12,18,7,0,0.54
2013-4-20,41.0,34.5,26.6,32.8,23.0,16.6,95,64,44,30.26,29.53,14,5,0,0.00
2013-4-21,46.2,35.6,21.9,30.6,25.0,20.7,99,68,39,30.46,30.26,9,2,0,0.00
2013-4-22,59.9,45.6,29.3,37.3,31.9,26.1,99,64,32,30.31,30.04,9,2,0,0.00
2013-4-23,69.1,53.7,36.9,55.0,42.0,33.7,99,69,40,30.04,29.64,16,5,0,0.21
2013-4-24,54.9,40.0,35.4,54.6,39.3,32.5,99,97,87,29.94,29.56,11,4,0,0.76
2013-4-25,53.6,40.4,29.5,42.9,32.6,27.3,96,76,41,30.16,29.92,12,4,0,0.07
2013-4-26,57.2,45.6,28.2,37.0,32.5,27.2,97,63,42,30.28,30.16,13,4,0,0.00
2013-4-27,69.3,52.5,32.4,42.6,36.8,31.4,98,59,33,30.20,29.95,10,2,0,0.00
2013-4-28,57.4,50.4,43.3,52.4,45.2,34.2,99,83,60,29.94,29.67,6,2,0,0.31
2013-4-29,69.1,58.1,52.2,56.0,53.7,51.9,99,86,60,29.77,29.66,5,1,0,0.00
2013-4-30,71.4,60.1,48.4,58.1,54.2,48.1,99,82,60,29.93,29.77,15,4,0,0.20
2013-5-1,78.8,64.0,47.1,61.9,55.3,46.8,99,76,51,30.08,29.91,7,2,0,0.00
2013-5-2,77.4,64.3,49.6,57.3,50.8,43.0,98,64,45,30.11,29.99,8,2,0,0.00
2013-5-3,74.7,63.8,52.2,55.2,45.6,37.8,77,54,27,29.99,29.92,9,3,0,0.00
2013-5-4,71.6,61.1,51.4,48.4,42.9,37.5,84,53,31,30.00,29.91,9,3,0,0.01
2013-5-5,73.4,60.2,45.3,48.3,41.3,38.0,86,53,29,29.99,29.86,9,3,0,0.00
2013-5-6,74.1,60.1,44.4,51.8,44.2,38.1,84,57,41,29.93,29.82,8,2,0,0.00
2013-5-7,78.1,63.3,46.9,56.5,48.0,38.3,77,59,39,29.92,29.82,8,2,0,0.00
2013-5-8,81.1,64.8,51.4,57.2,49.0,39.8,80,58,35,29.86,29.75,8,2,0,0.00
2013-5-9,83.1,66.2,48.0,56.4,48.2,41.4,99,58,27,29.81,29.71,7,2,0,0.00
2013-5-10,66.0,56.1,41.0,63.3,51.2,39.1,99,85,41,29.74,29.56,10,3,0,0.43
2013-5-11,60.3,46.9,37.4,47.5,41.6,33.0,99,83,59,29.71,29.54,12,4,0,0.01
2013-5-12,50.9,41.4,34.2,34.2,30.3,24.6,86,66,46,29.91,29.69,12,5,0,0.00
2013-5-13,58.5,42.4,27.7,31.3,26.1,23.0,86,55,29,29.99,29.90,7,2,0,0.00
2013-5-14,65.3,51.6,38.3,46.5,40.2,31.0,90,67,45,29.94,29.57,9,3,0,0.00
2013-5-15,84.0,67.6,49.8,61.3,51.3,45.1,99,62,32,29.60,29.41,9,3,0,0.02
2013-5-16,81.7,66.0,50.7,50.6,45.2,38.7,77,49,28,29.87,29.59,7,2,0,0.00
2013-5-17,70.5,57.5,45.5,48.8,43.3,39.1,83,61,41,30.01,29.87,6,2,0,0.01
2013-5-18,79.5,64.3,52.2,52.3,46.6,43.1,77,55,30,30.01,29.88,9,2,0,0.00
2013-5-19,86.0,69.1,50.2,66.6,57.5,46.0,87,68,47,29.89,29.71,7,2,0,0.00
2013-5-20,87.8,73.4,56.5,72.2,63.8,56.2,99,74,46,29.78,29.60,14,3,0,0.00
2013-5-21,85.6,73.9,61.9,69.3,63.8,60.2,97,73,47,29.65,29.54,9,3,0,0.15
2013-5-22,80.4,69.7,63.1,67.2,63.6,59.7,99,82,54,29.57,29.44,12,5,0,0.02
2013-5-23,64.2,51.5,40.5,60.3,49.1,36.8,97,91,82,29.97,29.51,15,5,0,0.11
2013-5-24,57.0,44.5,36.5,38.0,35.0,32.0,91,71,45,30.19,29.97,11,4,0,0.00
2013-5-25,65.3,49.0,31.3,41.0,35.7,30.7,99,65,34,30.24,30.13,7,2,0,0.00
2013-5-26,70.9,52.6,34.5,41.9,35.9,32.2,96,59,32,30.19,30.08,7,2,0,0.00
2013-5-27,64.6,50.1,33.4,49.9,40.5,32.1,99,74,32,30.11,29.88,8,2,0,0.46
2013-5-28,70.2,58.6,50.0,69.0,58.2,49.7,99,99,93,29.88,29.65,5,1,0,2.15
2013-5-29,85.1,72.7,62.8,67.9,65.7,62.2,99,80,52,29.83,29.62,9,3,0,0.04
2013-5-30,87.4,70.9,59.9,71.9,65.4,59.2,98,84,56,29.91,29.83,8,2,0,0.39
2013-5-31,81.7,71.8,62.6,68.8,65.8,61.4,97,82,65,29.84,29.69,11,4,0,0.50
2013-6-1,81.1,71.2,63.5,66.9,63.3,60.2,94,77,59,29.71,29.51,9,4,0,0.09
2013-6-2,74.1,65.5,53.4,62.8,55.6,43.1,88,71,56,29.81,29.48,11,4,0,0.00
2013-6-3,71.6,56.7,41.2,44.9,41.2,37.5,88,58,36,29.91,29.81,9,2,0,0.00
2013-6-4,74.3,58.4,44.8,49.4,43.2,35.7,84,59,39,30.05,29.90,5,2,0,0.00
2013-6-5,77.0,60.2,44.2,51.4,44.3,36.2,80,57,36,30.04,29.83,5,2,0,0.00
2013-6-6,65.3,58.9,55.4,52.8,46.5,42.2,69,63,58,29.85,29.69,8,3,0,0.00
2013-6-7,61.7,56.0,49.5,51.8,49.4,46.4,90,79,68,29.75,29.70,8,3,0,0.00
2013-6-8,75.0,62.8,55.2,55.5,51.4,48.8,82,68,50,29.91,29.73,4,1,0,0.00
2013-6-9,76.5,64.5,50.5,56.5,52.3,47.7,92,67,49,29.98,29.80,8,2,0,0.00
2013-6-10,70.2,64.0,58.6,66.5,60.8,49.8,94,90,57,29.80,29.56,4,1,0,0.70
2013-6-11,84.6,70.5,61.9,64.8,62.0,60.2,94,76,47,29.71,29.58,10,2,0,0.00
2013-6-12,76.3,68.6,58.6,66.1,62.1,55.7,92,81,65,29.75,29.49,5,1,0,0.04
2013-6-13,76.5,67.7,59.7,62.1,56.4,50.8,92,70,44,29.74,29.40,10,4,0,1.18
2013-6-14,77.5,65.7,54.3,56.7,51.6,48.4,82,62,44,29.91,29.75,10,3,0,0.00
2013-6-15,78.8,65.2,49.3,62.8,54.9,46.5,92,71,46,29.92,29.74,6,1,0,0.00
2013-6-16,85.8,71.6,63.7,63.2,59.5,52.2,91,68,40,29.74,29.57,7,3,0,0.27
2013-6-17,87.4,69.8,58.1,61.1,55.9,51.9,90,64,39,29.76,29.68,14,2,0,0.24
2013-6-18,71.8,61.9,53.1,55.0,49.7,38.7,90,66,46,29.91,29.73,8,4,0,0.02
2013-6-19,79.2,62.8,47.8,53.4,45.3,37.9,79,55,35,30.02,29.91,5,2,0,0.00
2013-6-20,81.9,65.8,47.5,57.9,51.4,44.4,91,63,39,30.07,29.99,7,2,0,0.00
2013-6-21,85.5,70.1,52.5,65.1,56.9,49.1,90,65,45,30.06,29.91,10,2,0,0.00
2013-6-22,90.0,75.9,64.6,69.8,63.6,57.4,80,66,47,29.94,29.82,8,3,0,0.00
2013-6-23,92.7,79.4,67.8,68.8,65.7,62.9,89,65,43,29.89,29.79,9,4,0,0.00
2013-6-24,90.0,78.1,66.9,68.6,64.4,61.2,86,64,44,29.89,29.75,8,3,0,0.20
2013-6-25,87.3,73.1,66.9,68.4,65.1,62.4,90,77,50,29.79,29.65,6,2,0,0.20
2013-6-26,90.9,75.3,64.4,68.0,64.8,61.4,91,72,43,29.69,29.58,7,2,0,0.00
2013-6-27,85.5,73.1,64.9,70.6,65.7,60.3,91,79,46,29.59,29.46,9,1,0,3.49
2013-6-28,79.0,68.0,63.1,65.9,62.2,56.0,92,83,53,29.47,29.32,12,2,0,0.06
2013-6-29,76.1,67.7,60.8,60.7,58.2,52.3,90,73,55,29.56,29.35,8,3,0,0.00
2013-6-30,78.3,67.7,58.1,59.6,54.9,43.8,88,65,46,29.77,29.55,14,3,0,0.00
2013-7-1,69.6,63.8,59.5,57.7,51.6,44.5,87,65,54,29.89,29.77,7,4,0,0.09
2013-7-2,77.5,67.3,59.9,60.9,56.6,52.0,82,69,56,29.90,29.85,5,2,0,0.00
2013-7-3,83.8,70.9,57.6,67.6,60.2,54.1,89,71,46,29.94,29.87,7,2,0,0.00
2013-7-4,82.4,74.8,67.8,66.8,63.4,59.8,87,69,49,29.96,29.89,7,2,0,0.00
2013-7-5,85.6,75.1,68.7,66.4,62.9,58.3,89,68,42,29.95,29.87,5,1,0,0.01
2013-7-6,85.1,73.7,64.4,67.8,64.1,60.5,90,74,52,29.95,29.82,8,2,0,0.07
2013-7-7,83.1,75.0,69.6,68.6,66.2,62.8,91,75,56,29.86,29.79,7,2,0,0.02
2013-7-8,83.7,73.3,67.5,71.5,66.2,62.2,91,79,63,29.86,29.79,8,3,0,0.84
2013-7-9,89.2,76.8,68.9,71.6,68.0,64.8,92,76,47,29.82,29.68,5,2,0,0.02
2013-7-10,89.6,77.8,65.7,74.6,66.5,53.6,91,70,46,29.76,29.57,7,3,0,1.16
2013-7-11,77.7,68.0,60.1,59.0,53.8,50.6,79,62,44,29.91,29.76,11,3,0,0.00
2013-7-12,85.1,68.1,55.4,62.0,56.1,51.6,88,68,43,30.00,29.91,7,2,0,0.00
2013-7-13,85.3,72.6,58.6,63.7,59.1,55.1,90,65,42,30.06,29.97,7,2,0,0.00
2013-7-14,90.0,84.3,73.2,68.9,66.2,62.1,78,56,41,30.10,30.07,5,1,0,0.00
2013-7-15,91.4,77.8,68.2,73.0,68.9,64.6,91,76,52,30.15,30.07,7,1,0,1.46
2013-7-16,93.4,81.2,72.0,76.0,72.3,69.2,92,76,52,30.15,30.06,7,1,0,0.02
2013-7-17,96.8,84.5,72.1,73.2,70.8,67.6,87,65,43,30.11,29.97,6,1,0,0.00
2013-7-18,94.5,83.6,72.1,73.5,69.3,66.4,86,64,44,29.99,29.77,6,2,0,0.00
2013-7-19,94.5,82.9,74.8,71.4,69.1,64.1,83,65,42,29.79,29.54,12,4,0,0.14
2013-7-20,87.3,76.1,67.6,69.2,62.5,55.4,89,66,40,29.79,29.55,7,2,0,1.39
2013-7-21,85.5,71.3,61.9,61.8,56.2,50.3,72,60,40,29.84,29.76,7,2,0,0.00
2013-7-22,83.1,71.8,62.6,65.8,60.0,55.7,84,67,46,29.81,29.60,5,1,0,0.00
2013-7-23,81.0,69.9,59.4,69.4,62.3,47.9,88,78,56,29.70,29.49,14,3,0,0.40
2013-7-24,72.5,62.2,52.7,51.7,47.6,44.7,86,59,45,29.89,29.70,8,4,0,0.00
2013-7-25,79.2,64.2,48.7,56.0,50.6,45.6,89,64,42,29.95,29.88,5,2,0,0.00
2013-7-26,79.5,67.9,53.8,58.5,54.1,50.6,90,64,42,29.94,29.74,7,2,0,0.02
2013-7-27,72.1,65.8,56.3,63.3,59.4,50.9,86,80,61,29.74,29.56,7,3,0,0.17
2013-7-28,67.1,57.6,49.5,55.1,50.0,45.8,90,77,56,29.80,29.64,8,2,0,0.30
2013-7-29,71.4,61.2,54.9,54.2,52.5,51.3,90,75,52,30.01,29.79,8,2,0,0.01
2013-7-30,79.0,65.3,51.3,57.4,53.2,48.5,91,68,40,30.08,29.96,5,1,0,0.00
2013-7-31,72.5,65.8,58.5,65.6,61.0,54.3,90,84,71,29.98,29.68,7,1,0,0.52
2013-8-1,79.5,67.7,62.4,62.8,58.3,53.8,90,74,44,29.73,29.67,6,2,0,0.01
2013-8-2,77.4,66.0,55.4,60.7,55.6,50.8,85,70,48,29.74,29.65,7,2,0,0.00
2013-8-3,79.5,68.7,55.9,60.5,54.6,50.6,89,63,40,29.88,29.70,7,2,0,0.00
2013-8-4,74.7,62.6,53.2,53.5,50.6,46.8,86,67,44,29.99,29.88,10,3,0,0.00
2013-8-5,72.9,60.8,50.4,54.7,50.1,46.7,90,70,44,29.96,29.80,5,1,0,0.00
2013-8-6,77.2,68.3,59.9,62.5,59.2,54.1,87,74,56,29.81,29.72,8,3,0,0.00
2013-8-7,82.8,72.0,62.6,67.4,62.8,59.0,90,74,54,29.74,29.63,8,3,0,0.02
2013-8-8,77.5,68.8,62.2,65.1,59.7,51.5,86,74,55,29.84,29.72,6,3,0,0.00
2013-8-9,84.6,69.7,58.1,59.4,54.9,50.0,85,62,41,29.83,29.76,6,2,0,0.00
2013-8-10,79.2,67.9,56.3,57.3,54.2,50.4,87,63,40,29.96,29.83,9,2,0,0.00
2013-8-11,81.9,67.9,55.6,59.8,55.7,50.5,84,67,40,29.96,29.85,6,1,0,0.00
2013-8-12,70.9,65.3,60.1,64.4,60.5,55.8,91,85,77,29.89,29.66,6,2,0,0.41
2013-8-13,66.9,61.7,53.6,61.7,50.5,42.3,91,69,45,29.86,29.64,11,4,0,0.00
2013-8-14,71.8,58.8,49.3,49.8,46.4,42.4,81,65,42,29.98,29.87,10,3,0,0.00
2013-8-15,76.6,62.8,48.4,53.0,48.0,44.0,87,61,37,30.01,29.92,5,1,0,0.00
2013-8-16,80.4,70.8,56.7,58.0,53.6,50.7,86,56,40,30.05,29.98,5,2,0,0.02
2013-8-17,80.6,66.3,50.5,58.0,53.2,47.7,91,66,40,30.13,30.03,8,2,0,0.00
2013-8-18,82.4,68.3,55.2,61.3,55.0,50.8,91,66,36,30.07,29.95,6,1,0,0.00
2013-8-19,85.8,69.5,54.9,60.4,54.8,49.0,91,64,29,29.96,29.86,7,1,0,0.00
2013-8-20,89.2,73.4,57.4,63.1,58.8,53.4,90,64,39,29.98,29.89,7,2,0,0.00
2013-8-21,88.9,75.1,62.8,63.6,61.6,59.2,89,66,40,29.97,29.82,8,3,0,0.00
2013-8-22,85.8,76.0,68.7,64.0,62.0,59.3,82,63,43,29.87,29.77,7,2,0,0.00
2013-8-23,83.8,69.9,58.1,59.2,53.6,48.4,77,58,36,30.05,29.87,8,2,0,0.00
2013-8-24,82.8,67.8,53.2,59.3,54.5,50.3,91,65,40,30.17,30.05,6,2,0,0.00
2013-8-25,90.0,72.5,53.6,63.0,57.1,50.7,90,62,36,30.15,29.97,7,3,0,0.00
2013-8-26,90.9,79.6,70.7,67.6,62.1,57.2,68,56,43,29.99,29.79,8,3,0,0.00
2013-8-27,81.9,75.5,69.3,71.9,68.3,64.7,91,79,64,29.82,29.67,9,2,0,0.84
2013-8-28,82.9,76.0,70.0,71.6,68.5,64.3,91,78,56,29.84,29.61,11,3,0,0.01
2013-8-29,88.5,75.8,66.0,66.1,64.0,61.7,86,69,43,29.92,29.83,4,2,0,0.00
2013-8-30,88.7,75.7,64.0,68.6,64.4,61.3,92,71,44,29.85,29.56,8,3,0,1.17
2013-8-31,79.5,72.5,63.9,69.2,65.0,60.1,91,79,57,29.68,29.56,7,2,0,0.00
2013-9-1,81.7,69.6,61.9,67.4,63.3,58.9,91,81,61,29.68,29.54,5,1,0,0.00
2013-9-2,76.5,68.4,60.3,67.7,58.5,48.3,91,72,52,29.73,29.53,10,4,0,0.03
2013-9-3,75.2,63.0,56.5,53.8,50.6,48.3,81,65,47,29.83,29.72,8,3,0,0.00
2013-9-4,83.1,67.6,50.7,60.1,55.0,47.3,90,66,45,29.90,29.80,8,2,0,0.00
2013-9-5,71.1,61.1,47.3,58.4,48.4,42.4,85,65,43,30.10,29.89,11,3,0,0.00
2013-9-6,76.3,58.9,42.6,50.1,41.9,33.4,91,60,22,30.13,29.90,5,1,0,0.00
2013-9-7,81.9,67.3,51.6,67.7,57.0,43.5,85,70,52,29.90,29.71,6,2,0,0.03
2013-9-8,73.0,66.6,52.2,64.2,54.4,45.5,83,66,44,29.92,29.72,10,4,0,0.00
2013-9-9,75.9,63.0,49.5,64.6,56.4,46.1,91,80,66,29.91,29.73,5,1,0,0.00
2013-9-10,96.6,80.8,68.4,71.0,66.4,62.9,88,65,38,29.82,29.70,8,4,0,0.00
2013-9-11,92.1,77.8,67.5,70.5,65.5,62.1,91,68,49,29.86,29.72,11,2,0,0.89
2013-9-12,78.6,67.2,53.8,65.5,58.7,45.7,92,76,46,29.77,29.65,10,3,0,0.24
2013-9-13,58.1,52.2,41.9,47.6,42.9,37.4,85,71,55,29.97,29.76,11,4,0,0.02
2013-9-14,69.3,52.5,36.9,44.6,40.2,34.0,89,66,34,30.01,29.90,6,2,0,0.00
2013-9-15,64.0,54.5,46.6,51.6,47.7,42.2,90,79,59,29.94,29.88,4,1,0,0.07
2013-9-16,62.1,54.6,43.5,51.0,46.0,38.1,91,74,54,30.21,29.93,9,4,0,0.00
2013-9-17,66.4,51.1,38.8,48.9,41.6,35.8,90,72,38,30.25,30.05,9,2,0,0.00
2013-9-18,76.3,57.5,42.4,56.9,48.2,40.0,91,74,42,30.05,29.85,8,2,0,0.00
2013-9-19,78.6,66.4,52.9,65.4,59.4,50.3,92,79,63,29.88,29.74,11,3,0,0.00
2013-9-20,81.3,70.9,66.9,70.7,66.1,63.5,91,85,68,29.74,29.52,10,4,0,0.00
2013-9-21,66.9,62.0,52.5,64.2,55.2,43.0,92,79,58,29.68,29.47,9,3,0,0.00
2013-9-22,58.8,51.3,43.0,44.5,42.0,39.4,88,71,57,29.91,29.67,8,3,0,0.00
2013-9-23,62.1,49.6,41.0,46.7,42.0,38.5,92,77,55,30.01,29.91,7,1,0,0.00
2013-9-24,67.3,52.0,39.2,50.0,44.3,37.1,92,77,49,29.98,29.80,4,1,0,0.07
2013-9-25,72.3,55.4,43.9,51.5,46.6,41.6,92,75,44,29.85,29.77,5,2,0,0.01
2013-9-26,78.4,59.3,47.8,52.8,48.6,45.6,92,72,36,29.98,29.82,5,1,0,0.00
2013-9-27,77.5,59.6,46.4,56.8,51.3,44.4,93,76,49,30.07,29.97,6,1,0,0.00
2013-9-28,76.3,62.9,51.3,61.6,54.3,48.8,93,76,44,30.03,29.84,8,2,0,0.00
2013-9-29,62.6,58.3,53.6,59.9,55.6,51.2,93,91,83,29.85,29.77,5,1,0,0.16
2013-9-30,71.8,61.0,52.3,58.1,54.3,49.8,94,80,49,29.83,29.72,7,2,0,0.00
2013-10-1,71.1,60.6,49.6,63.7,56.6,47.9,95,87,74,29.83,29.74,9,3,0,0.00
2013-10-2,79.3,64.7,52.5,60.2,52.0,42.9,94,69,28,29.90,29.76,6,2,0,0.00
2013-10-3,78.6,64.7,50.7,67.6,58.0,46.9,91,80,66,29.90,29.74,8,2,0,0.00
2013-10-4,81.3,70.8,62.4,68.5,64.7,60.0,93,82,63,29.83,29.76,5,2,0,0.00
2013-10-5,74.7,67.1,63.0,69.7,63.7,59.8,94,89,82,29.86,29.71,5,1,0,0.32
2013-10-6,69.8,65.3,54.3,66.2,63.0,52.6,94,92,87,29.69,29.42,11,3,0,0.45
2013-10-7,59.2,51.9,45.3,52.9,47.9,42.9,95,87,71,29.92,29.47,10,3,0,0.04
2013-10-8,67.6,52.4,41.0,50.2,44.2,39.7,95,77,41,30.11,29.93,6,1,0,0.00
2013-10-9,69.4,53.2,40.3,55.5,44.9,39.0,95,77,41,30.15,30.04,7,1,0,0.00
2013-10-10,70.0,53.1,41.2,55.7,44.4,39.7,95,77,36,30.07,29.94,5,1,0,0.00
2013-10-11,73.6,54.0,41.4,50.2,44.2,39.0,95,74,31,29.99,29.90,4,1,0,0.00
2013-10-12,75.9,60.3,45.0,60.3,52.9,43.4,95,79,45,29.94,29.86,6,2,0,0.00
2013-10-13,69.6,59.3,45.1,57.7,46.1,35.3,94,65,29,30.17,29.91,7,2,0,0.00
2013-10-14,63.7,52.0,41.2,45.3,42.5,38.7,92,72,43,30.24,30.10,9,2,0,0.00
2013-10-15,66.0,52.3,37.9,58.6,48.3,36.5,95,87,72,30.10,29.64,8,3,0,0.06
2013-10-16,63.9,57.6,52.2,59.0,50.9,45.1,94,79,56,29.72,29.62,8,4,0,0.03
2013-10-17,53.1,50.6,46.0,48.5,46.4,42.6,91,86,80,29.71,29.54,6,2,0,0.29
2013-10-18,63.9,50.3,41.2,46.4,41.7,39.1,95,75,40,29.74,29.63,7,3,0,0.00
2013-10-19,50.7,44.2,40.3,44.1,39.9,35.9,93,85,71,29.71,29.53,7,3,0,0.18
2013-10-20,58.1,47.4,36.3,44.4,39.4,34.4,94,75,50,29.72,29.63,11,3,0,0.00
2013-10-21,54.9,49.9,39.2,46.9,42.8,33.8,88,76,65,29.68,29.59,9,5,0,0.10
2013-10-22,50.9,41.2,30.2,36.0,30.8,25.9,84,67,46,29.71,29.63,7,3,0,0.00
2013-10-23,49.1,39.7,30.7,33.8,29.6,24.0,93,69,38,29.72,29.61,10,3,0,0.00
2013-10-24,49.6,37.5,28.9,33.4,29.0,26.5,92,73,44,29.97,29.71,9,2,0,0.00
2013-10-25,48.2,38.3,30.2,35.2,30.0,27.4,90,73,49,30.12,29.91,10,3,0,0.00
2013-10-26,51.3,42.1,35.2,37.4,31.7,27.8,90,67,53,29.90,29.55,14,6,0,0.05
2013-10-27,51.3,40.3,31.5,35.8,32.1,28.4,89,74,52,29.87,29.77,8,2,0,0.00
2013-10-28,49.6,39.8,30.0,39.6,32.9,26.6,90,77,65,30.22,29.85,10,3,0,0.00
2013-10-29,47.8,41.3,35.1,33.8,31.5,28.5,82,69,49,30.27,30.08,6,2,0,0.00
2013-10-30,61.5,45.4,29.7,48.1,37.9,28.2,95,77,53,30.08,29.78,6,1,0,0.04
2013-10-31,61.3,58.3,51.6,59.6,56.4,48.1,95,93,87,29.78,28.96,12,6,0,1.85
2013-11-1,60.1,50.6,46.0,58.5,44.5,39.8,95,80,64,29.46,28.89,14,6,0,0.03
2013-11-2,46.8,43.0,34.7,43.7,39.8,30.9,95,89,79,29.90,29.44,10,4,0,0.24
2013-11-3,44.6,35.7,28.9,34.9,30.5,26.0,95,82,60,30.28,29.90,5,1,0,0.00
2013-11-4,46.6,38.2,27.0,35.2,29.9,25.0,94,73,49,30.32,30.12,9,3,0,0.00
2013-11-5,53.8,47.8,38.8,45.8,41.8,34.4,89,80,70,30.18,29.99,6,2,0,0.00
2013-11-6,55.2,51.8,42.1,51.2,46.1,38.5,89,81,69,29.98,29.60,16,6,0,0.25
2013-11-7,45.5,39.8,33.8,38.4,30.7,24.8,88,71,48,29.92,29.78,11,4,0,0.00
2013-11-8,45.5,33.0,28.0,29.1,26.1,23.8,86,76,50,30.09,29.91,6,1,0,0.00
2013-11-9,55.4,46.1,32.4,41.3,35.3,28.1,86,67,52,30.00,29.58,12,5,0,0.00
2013-11-10,48.2,41.6,29.5,35.8,30.8,25.5,86,66,52,30.07,29.67,13,4,0,0.04
2013-11-11,42.1,35.4,27.5,37.6,30.1,21.3,91,81,73,30.10,29.81,12,5,0,0.17
2013-11-12,35.1,27.7,22.3,21.3,17.3,12.9,81,65,49,30.33,30.10,14,5,0,0.00
2013-11-13,42.3,29.7,16.3,24.4,16.8,9.3,87,62,29,30.35,29.94,14,6,0,0.00
2013-11-14,48.9,38.6,27.5,26.2,21.8,16.8,70,52,38,29.95,29.76,17,8,0,0.00
2013-11-15,51.6,42.7,36.0,29.7,26.7,23.2,73,53,40,29.88,29.78,10,5,0,0.00
2013-11-16,54.9,43.4,27.5,49.8,38.9,24.6,94,84,74,29.93,29.62,14,4,0,0.00
2013-11-17,61.0,56.1,46.9,56.9,52.2,39.9,94,87,70,29.61,29.01,21,9,0,0.98
2013-11-18,47.5,40.4,34.7,40.7,30.6,23.2,78,68,60,29.92,29.22,18,7,0,0.00
2013-11-19,41.9,33.5,25.0,24.3,22.4,20.2,86,64,49,30.23,29.92,11,3,0,0.00
2013-11-20,44.1,32.3,22.6,33.6,26.4,20.1,93,80,52,30.28,30.06,9,2,0,0.00
2013-11-21,47.5,42.2,33.8,41.9,36.5,27.4,95,80,65,30.11,29.98,11,3,0,0.33
2013-11-22,45.0,38.5,24.4,43.9,35.8,21.3,96,90,78,30.16,29.94,10,2,0,0.10
2013-11-23,28.9,23.2,15.4,23.2,14.7,3.1,90,71,43,30.29,30.05,13,6,0,0.00
2013-11-24,25.2,18.0,13.3,12.7,8.9,7.2,79,68,48,30.38,30.21,10,4,0,0.00
2013-11-25,30.7,24.8,17.8,23.7,15.4,10.5,82,68,52,30.22,29.87,14,7,0,0.00
2013-11-26,33.4,31.0,28.4,27.0,25.6,23.9,83,80,76,29.90,29.71,9,4,0,0.00
2013-11-27,30.4,23.1,17.8,25.9,13.9,8.7,83,68,51,29.95,29.69,14,6,0,0.00
2013-11-28,27.3,21.3,15.6,21.1,14.9,8.7,83,76,67,30.21,29.95,8,2,0,0.00
2013-11-29,33.1,21.7,9.9,22.3,16.0,6.6,89,79,57,30.47,30.21,5,1,0,0.00
2013-11-30,42.3,33.2,20.3,27.6,25.1,17.1,89,73,54,30.36,29.88,11,4,0,0.00
2013-12-1,44.6,36.0,30.4,34.3,29.8,25.3,86,78,67,29.89,29.79,7,3,0,0.00
2013-12-2,39.0,32.2,24.1,29.1,24.3,19.1,86,74,51,29.79,29.68,7,2,0,0.00
2013-12-3,36.7,31.7,23.9,33.6,28.2,20.0,95,87,79,29.73,29.66,6,2,0,0.01
2013-12-4,55.2,42.9,34.5,50.8,40.4,33.2,96,91,84,29.73,29.44,7,2,0,0.01
2013-12-5,57.4,43.1,30.4,53.6,34.6,21.1,90,72,60,29.94,29.41,16,6,0,0.00
2013-12-6,30.2,25.8,19.2,20.9,16.2,11.8,73,67,62,30.19,29.92,7,3,0,0.00
2013-12-7,25.7,18.7,10.6,13.5,8.8,5.9,81,66,47,30.41,30.19,7,2,0,0.00
2013-12-8,27.0,18.6,9.0,23.7,12.6,4.9,87,78,62,30.39,29.81,8,3,0,0.00
2013-12-9,29.5,26.8,20.1,27.7,21.9,12.9,93,82,71,29.88,29.65,15,6,0,0.00
2013-12-10,21.9,18.2,11.5,16.4,9.2,3.5,83,68,46,29.97,29.72,12,6,0,0.00
2013-12-11,25.2,17.6,6.3,17.2,10.5,0.0,82,74,65,30.24,29.96,8,4,0,0.00
2013-12-12,19.4,13.1,3.6,11.4,5.4,-1.7,82,71,46,30.24,29.96,12,5,0,0.00
2013-12-13,28.4,23.2,18.5,19.1,16.2,10.1,79,74,65,30.10,29.92,8,3,0,0.00
2013-12-14,21.2,18.0,15.3,18.5,13.9,9.4,89,84,67,30.10,29.58,8,5,0,0.00
2013-12-15,26.1,18.5,8.2,23.0,14.6,4.1,89,84,73,29.81,29.56,12,4,0,0.00
2013-12-16,29.7,14.3,7.5,14.7,7.2,3.7,87,75,40,29.96,29.79,8,2,0,0.00
2013-12-17,27.7,20.9,12.2,22.6,16.9,9.1,90,84,77,29.79,29.64,11,4,0,0.00
2013-12-18,30.6,25.1,19.2,24.1,20.0,14.7,91,81,69,29.89,29.70,13,5,0,0.00
2013-12-19,43.2,32.0,24.3,33.5,25.1,16.4,87,76,67,29.79,29.65,9,3,0,0.15
2013-12-20,35.1,33.1,32.0,33.6,31.8,29.6,96,95,89,29.72,29.53,5,2,0,0.51
2013-12-21,34.5,32.8,31.8,33.0,31.6,30.5,97,96,94,29.66,29.47,9,4,0,0.76
2013-12-22,38.5,33.5,31.8,34.7,31.9,30.5,96,94,86,29.75,29.34,8,3,0,0.30
2013-12-23,32.0,28.0,21.9,31.0,24.0,16.4,96,85,73,30.09,29.74,7,3,0,0.00
2013-12-24,21.4,13.0,3.2,14.1,7.4,0.0,87,78,63,30.35,30.07,9,3,0,0.00
2013-12-25,23.9,17.2,1.8,20.6,13.2,-1.6,87,84,80,30.30,29.91,11,4,0,0.00
2013-12-26,28.8,25.1,23.0,24.9,19.7,14.9,90,80,60,30.08,29.80,14,4,0,0.00
2013-12-27,37.8,31.7,23.7,30.9,26.7,19.9,89,82,74,30.10,29.84,10,4,0,0.07
2013-12-28,45.7,38.1,27.7,35.0,31.4,24.8,91,77,64,29.91,29.69,10,6,0,0.00
2013-12-29,42.8,33.7,20.3,32.2,27.2,14.3,86,77,63,29.79,29.47,11,5,0,0.00
2013-12-30,21.2,18.0,15.3,14.3,8.7,4.8,80,67,53,30.06,29.78,8,3,0,0.00
2013-12-31,20.5,16.9,12.9,15.3,10.1,5.2,85,74,57,30.12,29.83,10,4,0,0.00
2014-1-1,15.3,12.7,10.0,11.3,6.8,1.8,86,77,61,30.20,30.05,7,4,0,0.00
2014-1-2,14.2,11.0,1.9,10.8,6.9,-3.3,86,83,78,30.04,29.87,17,8,0,0.00